Time;durP1;ratioP1;P1;durP2;ratioP2;P2;SDS_P1;SDS_P2;PMS_P1;PMS_P2;Temp;Humidity;BMP_temperature;BMP_pressure;BME280_temperature;BME280_humidity;BME280_pressure;Samples;Min_cycle;Max_cycle;Signal;HPM_P1;HPM_P2
2022/06/19 00:01:06;;;;;;;12.10;2.42;;;;;;;;;;4991151;28;20248;-62
2022/06/19 00:03:34;;;;;;;11.98;2.58;;;;;;;;;;4999538;28;20654;-63
2022/06/19 00:06:00;;;;;;;15.98;2.83;;;;;;;;;;5024296;28;20252;-62
2022/06/19 00:08:26;;;;;;;13.75;2.53;;;;;;;;;;4991471;28;20280;-62
2022/06/19 00:10:52;;;;;;;11.80;2.63;;;;;;;;;;4992375;28;20594;-62
2022/06/19 00:13:17;;;;;;;11.85;2.60;;;;;;;;;;4991312;28;20209;-62
2022/06/19 00:15:42;;;;;;;13.55;2.40;;;;;;;;;;4995507;28;20270;-63
2022/06/19 00:18:08;;;;;;;14.18;2.33;;;;;;;;;;5026115;28;20248;-63
2022/06/19 00:20:33;;;;;;;14.65;2.33;;;;;;;;;;5010563;28;20244;-63
2022/06/19 00:22:58;;;;;;;13.18;2.17;;;;;;;;;;5010534;28;20221;-63
2022/06/19 00:25:24;;;;;;;14.75;2.45;;;;;;;;;;5011150;28;20200;-63
2022/06/19 00:27:49;;;;;;;13.82;2.60;;;;;;;;;;5011045;28;20216;-63
2022/06/19 00:30:15;;;;;;;13.80;2.33;;;;;;;;;;4998021;28;20225;-62
2022/06/19 00:32:40;;;;;;;12.15;2.10;;;;;;;;;;4986472;28;20224;-62
2022/06/19 00:35:05;;;;;;;10.40;2.15;;;;;;;;;;4993189;28;20227;-63
2022/06/19 00:37:31;;;;;;;13.48;2.47;;;;;;;;;;4982035;28;20231;-63
2022/06/19 00:39:57;;;;;;;12.15;2.03;;;;;;;;;;4998843;28;20230;-62
2022/06/19 00:42:24;;;;;;;13.45;2.15;;;;;;;;;;4995122;28;20516;-63
2022/06/19 00:44:50;;;;;;;13.75;2.55;;;;;;;;;;4988742;28;20213;-62
2022/06/19 00:47:17;;;;;;;13.07;2.58;;;;;;;;;;4978642;28;20267;-62
2022/06/19 00:49:48;;;;;;;18.13;2.95;;;;;;;;;;4996989;28;20573;-62
2022/06/19 00:52:15;;;;;;;17.48;2.83;;;;;;;;;;4986557;28;20410;-62
2022/06/19 00:54:42;;;;;;;12.70;2.72;;;;;;;;;;5019704;28;20675;-62
2022/06/19 00:57:08;;;;;;;10.88;2.28;;;;;;;;;;5015144;28;20815;-62
2022/06/19 00:59:34;;;;;;;17.88;2.97;;;;;;;;;;4997586;28;20225;-62
2022/06/19 01:01:59;;;;;;;15.20;2.67;;;;;;;;;;5000138;28;20295;-62
2022/06/19 01:04:27;;;;;;;12.02;2.40;;;;;;;;;;4999849;28;20236;-62
2022/06/19 01:06:52;;;;;;;12.15;2.80;;;;;;;;;;4989511;28;20767;-62
2022/06/19 01:09:18;;;;;;;14.30;2.58;;;;;;;;;;4980121;28;20300;-62
2022/06/19 01:11:43;;;;;;;15.13;2.80;;;;;;;;;;4995807;28;20617;-62
2022/06/19 01:14:09;;;;;;;14.27;2.40;;;;;;;;;;4978171;28;20315;-62
2022/06/19 01:16:35;;;;;;;8.98;2.25;;;;;;;;;;5002307;28;20955;-62
2022/06/19 01:19:00;;;;;;;12.63;2.42;;;;;;;;;;4988060;28;20237;-62
2022/06/19 01:21:34;;;;;;;15.30;2.83;;;;;;;;;;4986152;28;20209;-62
2022/06/19 01:24:07;;;;;;;17.10;2.60;;;;;;;;;;5003988;28;21295;-62
2022/06/19 01:26:35;;;;;;;16.70;2.63;;;;;;;;;;4983927;28;20213;-63
2022/06/19 01:29:01;;;;;;;13.38;2.38;;;;;;;;;;5003524;28;20683;-62
2022/06/19 01:31:33;;;;;;;14.77;2.63;;;;;;;;;;4989804;28;20221;-63
2022/06/19 01:34:26;;;;;;;13.63;2.53;;;;;;;;;;4984896;28;20783;-63
2022/06/19 01:36:54;;;;;;;15.52;2.20;;;;;;;;;;4986671;28;20296;-62
2022/06/19 01:39:19;;;;;;;15.00;2.30;;;;;;;;;;4982688;28;20819;-63
2022/06/19 01:41:44;;;;;;;17.02;2.55;;;;;;;;;;4991773;28;20316;-63
2022/06/19 01:44:09;;;;;;;14.00;2.47;;;;;;;;;;4984572;28;20292;-63
2022/06/19 01:46:35;;;;;;;10.65;2.25;;;;;;;;;;4984251;28;20216;-63
2022/06/19 01:49:00;;;;;;;12.32;2.42;;;;;;;;;;4984590;28;20221;-63
2022/06/19 01:51:26;;;;;;;11.18;2.40;;;;;;;;;;4998986;28;20668;-63
2022/06/19 01:53:54;;;;;;;11.05;1.90;;;;;;;;;;4980592;28;20209;-63
2022/06/19 01:56:19;;;;;;;13.63;2.20;;;;;;;;;;5010524;28;20221;-63
2022/06/19 01:58:47;;;;;;;13.68;2.25;;;;;;;;;;5011403;28;20742;-63
2022/06/19 02:01:13;;;;;;;14.40;2.17;;;;;;;;;;5005873;28;20251;-63
2022/06/19 02:03:49;;;;;;;15.57;2.28;;;;;;;;;;4984553;28;20321;-62
2022/06/19 02:06:15;;;;;;;12.20;2.10;;;;;;;;;;4999403;28;20622;-63
2022/06/19 02:08:41;;;;;;;11.75;2.25;;;;;;;;;;4998835;28;20213;-63
2022/06/19 02:11:06;;;;;;;9.65;2.10;;;;;;;;;;4996931;28;20213;-64
2022/06/19 02:13:34;;;;;;;11.82;2.20;;;;;;;;;;4998729;28;20206;-64
2022/06/19 02:15:59;;;;;;;9.73;2.35;;;;;;;;;;5016133;28;20213;-65
2022/06/19 02:18:26;;;;;;;10.50;2.22;;;;;;;;;;4995949;28;20232;-65
2022/06/19 02:20:51;;;;;;;12.25;2.03;;;;;;;;;;4985692;28;20320;-65
2022/06/19 02:23:19;;;;;;;10.23;2.17;;;;;;;;;;4977967;28;20856;-64
2022/06/19 02:25:44;;;;;;;12.52;2.63;;;;;;;;;;5003488;28;20299;-64
2022/06/19 02:28:09;;;;;;;12.45;3.00;;;;;;;;;;4993148;28;20300;-64
2022/06/19 02:30:34;;;;;;;17.20;2.47;;;;;;;;;;4984392;28;20244;-65
2022/06/19 02:33:00;;;;;;;13.65;2.00;;;;;;;;;;4984612;28;20304;-65
2022/06/19 02:35:26;;;;;;;13.77;2.03;;;;;;;;;;4997974;28;20223;-64
2022/06/19 02:37:53;;;;;;;11.23;2.42;;;;;;;;;;4998489;28;20225;-65
2022/06/19 02:40:22;;;;;;;13.15;2.28;;;;;;;;;;4985577;28;20290;-65
2022/06/19 02:42:48;;;;;;;12.63;1.95;;;;;;;;;;4990707;28;20268;-65
2022/06/19 02:45:25;;;;;;;13.68;2.25;;;;;;;;;;4976316;28;20216;-65
2022/06/19 02:47:51;;;;;;;12.90;2.60;;;;;;;;;;5001463;28;20246;-65
2022/06/19 02:50:19;;;;;;;12.63;2.38;;;;;;;;;;5002007;28;20215;-65
2022/06/19 02:52:44;;;;;;;13.73;2.17;;;;;;;;;;5003086;28;20212;-65
2022/06/19 02:55:09;;;;;;;12.10;2.45;;;;;;;;;;5002591;28;20216;-64
2022/06/19 02:57:35;;;;;;;15.48;2.70;;;;;;;;;;5002338;28;20220;-64
2022/06/19 03:00:00;;;;;;;9.68;1.88;;;;;;;;;;5002754;28;20216;-63
2022/06/19 03:02:28;;;;;;;16.92;2.40;;;;;;;;;;4995941;28;20274;-64
2022/06/19 03:04:54;;;;;;;12.38;2.15;;;;;;;;;;4968288;28;20295;-63
2022/06/19 03:07:19;;;;;;;13.70;2.38;;;;;;;;;;4989668;28;20672;-63
2022/06/19 03:09:44;;;;;;;10.90;2.30;;;;;;;;;;4980618;28;20214;-63
2022/06/19 03:12:10;;;;;;;11.73;2.10;;;;;;;;;;4982487;28;20236;-63
2022/06/19 03:14:35;;;;;;;12.50;2.50;;;;;;;;;;5002208;28;20215;-63
2022/06/19 03:17:00;;;;;;;9.35;1.80;;;;;;;;;;5000897;28;20226;-63
2022/06/19 03:19:26;;;;;;;10.25;1.98;;;;;;;;;;5001856;28;20208;-63
2022/06/19 03:21:51;;;;;;;10.13;1.85;;;;;;;;;;4988759;28;20225;-62
2022/06/19 03:24:16;;;;;;;8.32;1.65;;;;;;;;;;4980135;28;20256;-62
2022/06/19 03:26:42;;;;;;;8.55;1.65;;;;;;;;;;4994786;28;20204;-62
2022/06/19 03:29:07;;;;;;;12.73;1.88;;;;;;;;;;4994063;28;20653;-62
2022/06/19 03:31:32;;;;;;;11.00;1.73;;;;;;;;;;4984177;28;20232;-63
2022/06/19 03:33:58;;;;;;;8.82;1.30;;;;;;;;;;4982617;28;20213;-63
2022/06/19 03:36:24;;;;;;;8.60;1.98;;;;;;;;;;4982212;28;20267;-63
2022/06/19 03:38:49;;;;;;;10.10;1.50;;;;;;;;;;4982259;28;20376;-64
2022/06/19 03:41:15;;;;;;;8.75;1.48;;;;;;;;;;4999669;28;20850;-64
2022/06/19 03:43:40;;;;;;;10.35;1.63;;;;;;;;;;4996371;28;20217;-64
2022/06/19 03:46:12;;;;;;;9.13;1.70;;;;;;;;;;4981827;28;20308;-63
2022/06/19 03:48:37;;;;;;;10.05;1.70;;;;;;;;;;5003039;28;20217;-64
2022/06/19 03:51:03;;;;;;;7.55;1.55;;;;;;;;;;4974373;28;20221;-64
2022/06/19 03:53:28;;;;;;;11.73;1.92;;;;;;;;;;4974646;28;20694;-64
2022/06/19 03:55:54;;;;;;;11.65;2.33;;;;;;;;;;4982239;28;20312;-64
2022/06/19 03:58:19;;;;;;;11.35;2.28;;;;;;;;;;4982230;28;20237;-63
2022/06/19 04:00:44;;;;;;;12.90;1.77;;;;;;;;;;4982394;28;20267;-64
2022/06/19 04:03:10;;;;;;;14.52;2.45;;;;;;;;;;5000151;28;20228;-63
2022/06/19 04:05:35;;;;;;;12.85;2.35;;;;;;;;;;5001833;28;20274;-64
2022/06/19 04:08:01;;;;;;;12.50;2.15;;;;;;;;;;5000746;28;20311;-62
2022/06/19 04:10:26;;;;;;;9.63;2.03;;;;;;;;;;4997606;28;20291;-63
2022/06/19 04:12:51;;;;;;;13.32;2.00;;;;;;;;;;4994562;28;20208;-64
2022/06/19 04:15:17;;;;;;;11.80;2.33;;;;;;;;;;4997253;28;20597;-64
2022/06/19 04:17:43;;;;;;;13.85;2.15;;;;;;;;;;5002021;28;20673;-63
2022/06/19 04:20:09;;;;;;;14.80;2.17;;;;;;;;;;5004735;28;20212;-65
2022/06/19 04:22:34;;;;;;;11.70;2.20;;;;;;;;;;4989524;28;20213;-65
2022/06/19 04:25:00;;;;;;;12.80;2.40;;;;;;;;;;4986749;28;20216;-65
2022/06/19 04:27:25;;;;;;;13.20;2.38;;;;;;;;;;4985839;28;20639;-66
2022/06/19 04:29:51;;;;;;;11.70;2.05;;;;;;;;;;4986196;28;20217;-65
2022/06/19 04:32:16;;;;;;;16.35;2.47;;;;;;;;;;4984252;28;20267;-66
2022/06/19 04:34:41;;;;;;;10.95;1.92;;;;;;;;;;4978001;28;20235;-64
2022/06/19 04:37:06;;;;;;;15.02;2.67;;;;;;;;;;4978488;28;20736;-64
2022/06/19 04:39:33;;;;;;;13.55;2.30;;;;;;;;;;4980831;28;20691;-64
2022/06/19 04:41:58;;;;;;;12.55;2.10;;;;;;;;;;4985749;28;20217;-65
2022/06/19 04:44:24;;;;;;;15.25;2.25;;;;;;;;;;4985794;28;20790;-65
2022/06/19 04:46:50;;;;;;;11.20;2.05;;;;;;;;;;4985576;28;20583;-65
2022/06/19 04:49:15;;;;;;;13.13;2.25;;;;;;;;;;4984694;28;20213;-64
2022/06/19 04:51:41;;;;;;;12.95;1.92;;;;;;;;;;4998964;28;20217;-62
2022/06/19 04:54:06;;;;;;;14.18;1.90;;;;;;;;;;5011569;28;20205;-63
2022/06/19 04:56:31;;;;;;;12.85;2.30;;;;;;;;;;5012765;28;20890;-62
2022/06/19 04:58:57;;;;;;;12.05;2.00;;;;;;;;;;5014912;28;20825;-61
2022/06/19 05:01:23;;;;;;;11.48;2.00;;;;;;;;;;5014141;28;20209;-63
2022/06/19 05:03:48;;;;;;;33.40;3.92;;;;;;;;;;5013392;28;20223;-63
2022/06/19 05:06:14;;;;;;;13.20;2.78;;;;;;;;;;5012924;28;20213;-62
2022/06/19 05:08:39;;;;;;;11.43;2.20;;;;;;;;;;5012576;28;20215;-62
2022/06/19 05:11:04;;;;;;;15.20;2.20;;;;;;;;;;5004279;28;20584;-62
2022/06/19 05:13:29;;;;;;;12.00;1.90;;;;;;;;;;5003502;28;20660;-63
2022/06/19 05:16:05;;;;;;;12.82;1.98;;;;;;;;;;5004262;28;20694;-62
2022/06/19 05:18:30;;;;;;;11.98;1.98;;;;;;;;;;5003865;28;20219;-63
2022/06/19 05:20:56;;;;;;;13.25;1.90;;;;;;;;;;5007293;28;20452;-63
2022/06/19 05:23:21;;;;;;;9.27;1.80;;;;;;;;;;5011925;28;20208;-65
2022/06/19 05:25:47;;;;;;;14.20;1.92;;;;;;;;;;5012774;28;20291;-64
2022/06/19 05:28:12;;;;;;;9.80;1.98;;;;;;;;;;5013780;28;20290;-64
2022/06/19 05:30:37;;;;;;;13.82;2.15;;;;;;;;;;5012944;28;20682;-65
2022/06/19 05:33:03;;;;;;;9.73;1.50;;;;;;;;;;5013896;28;20216;-63
2022/06/19 05:35:28;;;;;;;9.50;2.00;;;;;;;;;;5013945;28;20219;-61
2022/06/19 05:37:53;;;;;;;10.80;2.00;;;;;;;;;;5013498;28;20303;-63
2022/06/19 05:40:19;;;;;;;11.27;1.92;;;;;;;;;;5013916;28;20558;-63
2022/06/19 05:42:45;;;;;;;10.77;2.65;;;;;;;;;;5014390;28;20684;-63
2022/06/19 05:45:11;;;;;;;12.23;1.88;;;;;;;;;;5012567;28;20714;-62
2022/06/19 05:47:36;;;;;;;11.23;1.85;;;;;;;;;;5013934;28;20241;-62
2022/06/19 05:50:01;;;;;;;8.48;1.63;;;;;;;;;;5011834;28;20200;-62
2022/06/19 05:52:27;;;;;;;10.05;1.73;;;;;;;;;;5013592;28;20238;-62
2022/06/19 05:54:52;;;;;;;7.43;1.40;;;;;;;;;;5017528;28;20275;-63
2022/06/19 05:57:18;;;;;;;11.63;1.77;;;;;;;;;;4994808;28;20229;-61
2022/06/19 05:59:43;;;;;;;12.25;2.20;;;;;;;;;;5009214;28;20208;-63
2022/06/19 06:02:09;;;;;;;10.48;1.65;;;;;;;;;;4996731;28;20225;-63
2022/06/19 06:04:35;;;;;;;10.63;1.98;;;;;;;;;;5033374;28;20207;-62
2022/06/19 06:07:00;;;;;;;7.88;1.73;;;;;;;;;;5032503;28;20226;-63
2022/06/19 06:09:25;;;;;;;10.35;1.83;;;;;;;;;;5033204;28;20605;-63
2022/06/19 06:11:51;;;;;;;9.13;2.10;;;;;;;;;;5033335;28;20741;-62
2022/06/19 06:14:16;;;;;;;10.18;1.70;;;;;;;;;;5032275;28;20224;-62
2022/06/19 06:16:41;;;;;;;11.85;1.83;;;;;;;;;;5032995;28;20732;-62
2022/06/19 06:19:06;;;;;;;10.88;1.80;;;;;;;;;;5032541;28;20291;-62
2022/06/19 06:21:32;;;;;;;10.13;1.70;;;;;;;;;;5032459;28;20208;-62
2022/06/19 06:23:57;;;;;;;8.52;1.40;;;;;;;;;;5033242;28;20216;-63
2022/06/19 06:26:25;;;;;;;6.43;1.27;;;;;;;;;;5032996;28;20200;-62
2022/06/19 06:28:50;;;;;;;8.90;1.50;;;;;;;;;;5032359;28;20215;-62
2022/06/19 06:31:16;;;;;;;6.60;1.38;;;;;;;;;;5023197;28;20266;-62
2022/06/19 06:33:41;;;;;;;5.50;1.27;;;;;;;;;;5013093;28;20213;-63
2022/06/19 06:36:07;;;;;;;8.00;1.35;;;;;;;;;;5011647;28;20228;-62
2022/06/19 06:38:32;;;;;;;6.32;1.30;;;;;;;;;;5013062;28;20374;-62
2022/06/19 06:40:57;;;;;;;6.28;1.38;;;;;;;;;;5012496;28;20225;-62
2022/06/19 06:43:22;;;;;;;6.75;1.30;;;;;;;;;;5009594;28;20221;-62
2022/06/19 06:45:49;;;;;;;8.25;1.40;;;;;;;;;;4993425;28;20211;-62
2022/06/19 06:48:15;;;;;;;9.95;1.70;;;;;;;;;;4991594;28;20662;-62
2022/06/19 06:50:40;;;;;;;10.07;1.80;;;;;;;;;;4993259;28;20209;-62
2022/06/19 06:53:06;;;;;;;6.95;1.00;;;;;;;;;;4992770;28;20267;-62
2022/06/19 06:55:31;;;;;;;9.38;1.45;;;;;;;;;;4992625;28;20583;-62
2022/06/19 06:57:56;;;;;;;7.85;1.42;;;;;;;;;;4993149;28;20229;-62
2022/06/19 07:00:22;;;;;;;9.45;1.50;;;;;;;;;;4992612;28;20256;-63
2022/06/19 07:02:47;;;;;;;4.97;1.30;;;;;;;;;;4991572;28;20233;-62
2022/06/19 07:05:13;;;;;;;7.68;1.20;;;;;;;;;;4992564;28;20288;-61
2022/06/19 07:07:38;;;;;;;9.80;1.77;;;;;;;;;;4992660;28;20217;-61
2022/06/19 07:10:04;;;;;;;4.75;1.05;;;;;;;;;;4991958;28;20208;-62
2022/06/19 07:12:29;;;;;;;7.53;1.15;;;;;;;;;;4993090;28;20217;-62
2022/06/19 07:14:54;;;;;;;7.07;1.80;;;;;;;;;;4992809;28;20292;-62
2022/06/19 07:17:20;;;;;;;9.30;1.55;;;;;;;;;;4991098;28;20221;-62
2022/06/19 07:19:45;;;;;;;9.02;1.70;;;;;;;;;;4992573;28;20592;-63
2022/06/19 07:22:11;;;;;;;8.20;1.45;;;;;;;;;;4992117;28;20545;-63
2022/06/19 07:24:37;;;;;;;9.43;1.70;;;;;;;;;;4991962;28;20216;-61
2022/06/19 07:27:02;;;;;;;9.82;1.80;;;;;;;;;;4992555;28;20622;-61
2022/06/19 07:29:27;;;;;;;10.60;1.58;;;;;;;;;;4992632;28;20576;-62
2022/06/19 07:31:54;;;;;;;12.10;1.63;;;;;;;;;;4998814;28;20781;-62
2022/06/19 07:34:19;;;;;;;9.40;1.70;;;;;;;;;;5011117;28;20212;-61
2022/06/19 07:36:45;;;;;;;7.72;1.50;;;;;;;;;;5011936;28;20663;-61
2022/06/19 07:39:10;;;;;;;10.75;1.75;;;;;;;;;;5008625;28;20220;-61
2022/06/19 07:41:35;;;;;;;9.20;1.58;;;;;;;;;;5002752;28;20624;-61
2022/06/19 07:44:00;;;;;;;10.40;1.88;;;;;;;;;;5002988;28;20269;-62
2022/06/19 07:46:26;;;;;;;11.43;1.83;;;;;;;;;;5001428;28;20543;-61
2022/06/19 07:51:35;;;;;;;17.35;2.20;;;;;;;;;;5010942;28;20734;-61
2022/06/19 07:54:01;;;;;;;12.27;1.75;;;;;;;;;;5011395;28;20208;-61
2022/06/19 07:56:26;;;;;;;12.52;2.70;;;;;;;;;;5012153;28;20244;-61
2022/06/19 07:58:51;;;;;;;14.75;2.00;;;;;;;;;;5010780;28;20741;-61
2022/06/19 08:01:17;;;;;;;9.52;1.70;;;;;;;;;;5005529;28;20209;-61
2022/06/19 08:03:42;;;;;;;9.32;1.90;;;;;;;;;;5001266;28;20220;-61
2022/06/19 08:06:07;;;;;;;12.93;1.90;;;;;;;;;;4996072;28;20754;-62
2022/06/19 08:08:33;;;;;;;10.35;1.83;;;;;;;;;;5000605;28;20216;-63
2022/06/19 08:10:58;;;;;;;9.35;1.73;;;;;;;;;;5007181;28;20216;-63
2022/06/19 08:13:25;;;;;;;12.95;2.65;;;;;;;;;;5009602;28;20516;-65
2022/06/19 08:15:52;;;;;;;16.08;2.70;;;;;;;;;;5011546;28;20227;-63
2022/06/19 08:18:18;;;;;;;13.82;2.60;;;;;;;;;;5010768;28;20247;-63
2022/06/19 08:20:44;;;;;;;15.25;2.45;;;;;;;;;;5009401;28;20688;-63
2022/06/19 08:23:09;;;;;;;12.05;2.30;;;;;;;;;;5010982;28;20299;-62
2022/06/19 08:25:34;;;;;;;14.65;2.67;;;;;;;;;;5011520;28;20243;-63
2022/06/19 08:28:00;;;;;;;15.55;2.50;;;;;;;;;;5010997;28;20299;-62
2022/06/19 08:30:28;;;;;;;13.43;2.50;;;;;;;;;;5010863;28;20347;-63
2022/06/19 08:32:53;;;;;;;14.02;2.42;;;;;;;;;;5011289;28;20208;-62
2022/06/19 08:35:19;;;;;;;16.23;2.40;;;;;;;;;;5010063;28;20228;-62
2022/06/19 08:37:45;;;;;;;15.90;2.47;;;;;;;;;;5011360;28;20290;-62
2022/06/19 08:40:25;;;;;;;13.02;2.40;;;;;;;;;;5010716;28;20596;-62
2022/06/19 08:43:11;;;;;;;10.63;2.30;;;;;;;;;;5011137;28;20304;-63
2022/06/19 08:45:42;;;;;;;17.67;2.60;;;;;;;;;;4991220;28;20209;-63
2022/06/19 08:48:07;;;;;;;15.15;2.78;;;;;;;;;;5005573;28;20746;-62
2022/06/19 08:50:33;;;;;;;13.52;2.72;;;;;;;;;;4991695;28;20213;-63
2022/06/19 08:53:09;;;;;;;14.65;2.70;;;;;;;;;;4991623;28;20348;-64
2022/06/19 08:55:46;;;;;;;13.50;2.60;;;;;;;;;;5005387;28;20231;-64
2022/06/19 08:58:18;;;;;;;18.02;2.45;;;;;;;;;;5006124;28;20252;-63
2022/06/19 09:00:51;;;;;;;13.60;2.58;;;;;;;;;;4995179;28;20209;-64
2022/06/19 09:03:26;;;;;;;12.55;2.30;;;;;;;;;;5002067;28;20236;-63
2022/06/19 09:05:59;;;;;;;11.95;2.42;;;;;;;;;;4994956;28;20243;-63
2022/06/19 09:08:28;;;;;;;11.65;2.30;;;;;;;;;;4993173;28;20246;-63
2022/06/19 09:10:59;;;;;;;13.50;2.40;;;;;;;;;;4994503;28;20700;-63
2022/06/19 09:13:29;;;;;;;14.35;2.50;;;;;;;;;;4993735;28;20217;-64
2022/06/19 09:16:00;;;;;;;16.73;2.50;;;;;;;;;;4993478;28;20217;-64
2022/06/19 09:18:37;;;;;;;17.17;2.60;;;;;;;;;;4994037;28;20695;-64
2022/06/19 09:21:12;;;;;;;16.73;2.67;;;;;;;;;;4992553;28;20613;-65
2022/06/19 09:23:41;;;;;;;15.15;2.15;;;;;;;;;;5012361;28;20215;-62
2022/06/19 09:26:12;;;;;;;13.00;2.47;;;;;;;;;;5014354;28;20251;-62
2022/06/19 09:28:43;;;;;;;14.27;2.42;;;;;;;;;;5014459;28;20307;-61
2022/06/19 09:31:15;;;;;;;13.45;2.25;;;;;;;;;;5007446;28;20217;-64
2022/06/19 09:33:47;;;;;;;13.35;2.28;;;;;;;;;;5010547;28;20223;-63
2022/06/19 09:36:16;;;;;;;12.30;2.38;;;;;;;;;;4993518;28;20568;-64
2022/06/19 09:38:44;;;;;;;13.88;2.40;;;;;;;;;;5005115;28;20666;-64
2022/06/19 09:41:12;;;;;;;12.30;2.83;;;;;;;;;;5018848;28;20213;-63
2022/06/19 09:43:39;;;;;;;12.07;1.80;;;;;;;;;;5003828;28;20223;-63
2022/06/19 09:46:13;;;;;;;10.80;2.08;;;;;;;;;;5003575;28;20746;-64
2022/06/19 09:48:42;;;;;;;10.07;1.95;;;;;;;;;;5004050;28;20209;-65
2022/06/19 09:51:40;;;;;;;10.07;1.70;;;;;;;;;;4998674;28;20221;-64
2022/06/19 09:54:15;;;;;;;6.32;1.33;;;;;;;;;;4988468;28;20213;-64
2022/06/19 09:56:42;;;;;;;12.25;1.83;;;;;;;;;;5004346;28;20215;-65
2022/06/19 09:59:09;;;;;;;9.80;1.98;;;;;;;;;;4987974;28;20264;-63
2022/06/19 10:01:34;;;;;;;7.57;1.65;;;;;;;;;;5004181;28;20213;-62
2022/06/19 10:04:04;;;;;;;10.43;2.40;;;;;;;;;;4989517;28;20228;-62
2022/06/19 10:06:34;;;;;;;6.88;1.70;;;;;;;;;;4989070;28;20270;-62
2022/06/19 10:09:02;;;;;;;10.38;2.13;;;;;;;;;;5022183;28;20668;-62
2022/06/19 10:11:28;;;;;;;8.00;1.40;;;;;;;;;;5016300;28;20633;-64
2022/06/19 10:14:02;;;;;;;9.13;1.70;;;;;;;;;;4989041;28;20244;-63
2022/06/19 10:16:28;;;;;;;7.22;1.35;;;;;;;;;;4987259;28;20645;-64
2022/06/19 10:18:54;;;;;;;6.70;1.40;;;;;;;;;;4986407;28;20251;-63
2022/06/19 10:24:07;;;;;;;4.85;0.90;;;;;;;;;;4994601;28;20267;-63
2022/06/19 10:26:34;;;;;;;7.10;1.35;;;;;;;;;;4997343;28;20325;-64
2022/06/19 10:29:10;;;;;;;4.95;1.00;;;;;;;;;;4987589;28;20248;-64
2022/06/19 10:31:36;;;;;;;7.53;1.42;;;;;;;;;;4986564;28;20209;-64
2022/06/19 10:34:06;;;;;;;4.90;1.10;;;;;;;;;;4986938;28;20279;-64
2022/06/19 10:36:32;;;;;;;7.13;1.42;;;;;;;;;;4987817;28;20224;-64
2022/06/19 10:39:02;;;;;;;4.13;1.10;;;;;;;;;;4987672;28;20237;-64
2022/06/19 10:44:25;;;;;;;6.65;1.50;;;;;;;;;;4986258;28;20722;-64
2022/06/19 10:47:04;;;;;;;8.60;1.30;;;;;;;;;;4987558;28;20221;-64
2022/06/19 10:49:32;;;;;;;7.00;1.75;;;;;;;;;;4986365;28;20312;-63
2022/06/19 10:52:12;;;;;;;5.43;1.20;;;;;;;;;;4987797;28;20271;-63
2022/06/19 10:54:48;;;;;;;6.28;1.40;;;;;;;;;;4986279;28;20477;-64
2022/06/19 10:57:16;;;;;;;5.90;1.58;;;;;;;;;;4985361;28;20599;-63
2022/06/19 10:59:41;;;;;;;7.32;1.50;;;;;;;;;;4986397;28;20291;-64
2022/06/19 11:05:04;;;;;;;7.25;1.20;;;;;;;;;;4999442;28;20224;-63
2022/06/19 11:07:29;;;;;;;7.10;1.50;;;;;;;;;;4985816;28;20217;-64
2022/06/19 11:09:55;;;;;;;7.13;1.45;;;;;;;;;;4986395;28;20263;-63
2022/06/19 11:12:39;;;;;;;8.23;1.50;;;;;;;;;;4985648;28;20244;-64
2022/06/19 11:15:07;;;;;;;7.55;1.50;;;;;;;;;;4986276;28;20340;-63
2022/06/19 11:17:32;;;;;;;6.63;1.52;;;;;;;;;;4986984;28;20655;-64
2022/06/19 11:19:57;;;;;;;9.32;1.73;;;;;;;;;;4986859;28;20782;-64
2022/06/19 11:22:24;;;;;;;11.23;2.15;;;;;;;;;;4987625;28;20213;-64
2022/06/19 11:24:49;;;;;;;9.25;2.22;;;;;;;;;;5010953;28;20278;-63
2022/06/19 11:27:16;;;;;;;8.57;2.30;;;;;;;;;;5010509;28;20237;-63
2022/06/19 11:29:42;;;;;;;7.70;2.05;;;;;;;;;;5011587;28;20299;-64
2022/06/19 11:32:10;;;;;;;10.90;2.40;;;;;;;;;;5011239;28;20219;-63
2022/06/19 11:34:43;;;;;;;12.00;2.97;;;;;;;;;;5010616;28;20223;-64
2022/06/19 11:37:15;;;;;;;10.82;2.35;;;;;;;;;;5009439;28;20224;-64
2022/06/19 11:39:42;;;;;;;9.43;2.42;;;;;;;;;;5012031;28;20675;-64
2022/06/19 11:42:26;;;;;;;11.07;2.53;;;;;;;;;;4997254;28;20260;-64
2022/06/19 11:44:52;;;;;;;10.80;2.50;;;;;;;;;;5007206;28;20672;-63
2022/06/19 11:47:18;;;;;;;10.68;2.60;;;;;;;;;;5011077;28;20689;-64
2022/06/19 11:49:44;;;;;;;12.63;2.50;;;;;;;;;;5011976;28;20224;-63
2022/06/19 11:52:16;;;;;;;14.15;2.60;;;;;;;;;;5011071;28;20261;-63
2022/06/19 11:54:42;;;;;;;9.65;2.55;;;;;;;;;;5012059;28;20300;-63
2022/06/19 11:57:16;;;;;;;12.85;2.53;;;;;;;;;;5011040;28;20215;-64
2022/06/19 11:59:44;;;;;;;9.23;2.53;;;;;;;;;;5010318;28;20671;-64
2022/06/19 12:02:24;;;;;;;9.18;2.47;;;;;;;;;;5010959;28;20231;-63
2022/06/19 12:04:53;;;;;;;10.07;2.20;;;;;;;;;;5011019;28;20215;-63
2022/06/19 12:07:19;;;;;;;11.25;2.33;;;;;;;;;;5011342;28;20233;-63
2022/06/19 12:09:51;;;;;;;13.00;2.22;;;;;;;;;;5011219;28;20278;-63
2022/06/19 12:12:18;;;;;;;9.18;2.10;;;;;;;;;;5009977;28;20243;-63
2022/06/19 12:14:50;;;;;;;9.77;2.83;;;;;;;;;;5011591;28;20279;-63
2022/06/19 12:17:16;;;;;;;10.52;2.13;;;;;;;;;;5011346;28;20220;-63
2022/06/19 12:20:01;;;;;;;10.73;2.63;;;;;;;;;;5011097;28;20212;-63
2022/06/19 12:22:38;;;;;;;8.68;2.10;;;;;;;;;;5011012;28;20291;-63
2022/06/19 12:25:11;;;;;;;6.97;1.92;;;;;;;;;;5014139;28;20212;-63
2022/06/19 12:27:40;;;;;;;8.27;1.58;;;;;;;;;;5009787;28;20216;-63
2022/06/19 12:30:06;;;;;;;8.60;1.83;;;;;;;;;;5010941;28;20616;-63
2022/06/19 12:32:35;;;;;;;10.25;2.33;;;;;;;;;;5010672;28;20729;-63
2022/06/19 12:35:02;;;;;;;8.10;2.10;;;;;;;;;;5016318;28;20335;-63
2022/06/19 12:37:29;;;;;;;9.40;2.22;;;;;;;;;;5013780;28;20208;-63
2022/06/19 12:39:55;;;;;;;7.28;2.20;;;;;;;;;;5014466;28;20766;-63
2022/06/19 12:42:25;;;;;;;9.68;2.33;;;;;;;;;;5014035;28;20307;-62
2022/06/19 12:44:51;;;;;;;14.38;2.65;;;;;;;;;;4998979;28;20209;-64
2022/06/19 12:47:20;;;;;;;14.40;2.97;;;;;;;;;;4994289;28;20244;-64
2022/06/19 12:49:55;;;;;;;16.25;3.17;;;;;;;;;;4993810;28;20221;-64
2022/06/19 12:52:25;;;;;;;10.25;2.50;;;;;;;;;;4993870;28;20271;-63
2022/06/19 12:54:54;;;;;;;7.53;2.33;;;;;;;;;;4993450;28;20309;-64
2022/06/19 12:57:19;;;;;;;9.77;2.80;;;;;;;;;;4993937;28;20588;-63
2022/06/19 13:00:07;;;;;;;8.48;2.30;;;;;;;;;;4995102;28;20205;-64
2022/06/19 13:02:53;;;;;;;10.82;2.22;;;;;;;;;;5002139;28;20707;-64
2022/06/19 13:05:23;;;;;;;8.77;2.05;;;;;;;;;;4994931;28;20225;-63
2022/06/19 13:07:54;;;;;;;6.97;2.15;;;;;;;;;;4994084;28;20213;-63
2022/06/19 13:10:28;;;;;;;9.43;2.28;;;;;;;;;;4992504;28;20261;-63
2022/06/19 13:13:07;;;;;;;8.80;2.13;;;;;;;;;;4996587;28;20223;-63
2022/06/19 13:15:45;;;;;;;9.25;2.20;;;;;;;;;;5010466;28;20200;-63
2022/06/19 13:18:32;;;;;;;8.25;1.70;;;;;;;;;;5014234;28;20251;-63
2022/06/19 13:20:59;;;;;;;8.35;2.55;;;;;;;;;;5014341;28;20261;-63
2022/06/19 13:23:36;;;;;;;8.23;2.38;;;;;;;;;;5011603;28;20212;-63
2022/06/19 13:26:07;;;;;;;8.52;1.95;;;;;;;;;;5013949;28;20247;-62
2022/06/19 13:28:50;;;;;;;7.43;2.00;;;;;;;;;;5014618;28;20215;-63
2022/06/19 13:31:20;;;;;;;8.95;1.98;;;;;;;;;;5013467;28;20211;-62
2022/06/19 13:33:50;;;;;;;9.85;2.10;;;;;;;;;;5012878;28;20258;-63
2022/06/19 13:36:17;;;;;;;9.43;1.85;;;;;;;;;;5011646;28;20779;-62
2022/06/19 13:38:43;;;;;;;10.15;1.98;;;;;;;;;;5009258;28;20224;-64
2022/06/19 13:41:20;;;;;;;7.18;1.80;;;;;;;;;;5013655;28;20224;-62
2022/06/19 13:43:52;;;;;;;11.52;1.80;;;;;;;;;;5005460;28;20729;-62
2022/06/19 13:46:35;;;;;;;11.30;1.75;;;;;;;;;;4992983;28;20236;-62
2022/06/19 13:49:03;;;;;;;9.48;1.60;;;;;;;;;;4992815;28;20279;-63
2022/06/19 13:51:30;;;;;;;7.57;1.75;;;;;;;;;;4993972;28;20220;-63
2022/06/19 13:53:55;;;;;;;10.30;1.95;;;;;;;;;;4992944;28;20221;-63
2022/06/19 13:56:23;;;;;;;7.32;2.00;;;;;;;;;;4993780;28;20267;-63
2022/06/19 13:58:58;;;;;;;7.68;1.70;;;;;;;;;;4993293;28;20275;-63
2022/06/19 14:01:25;;;;;;;8.40;1.70;;;;;;;;;;4992269;28;20232;-63
2022/06/19 14:06:37;;;;;;;8.13;1.75;;;;;;;;;;5000571;28;20715;-63
2022/06/19 14:09:06;;;;;;;8.05;1.52;;;;;;;;;;4991928;28;20221;-63
2022/06/19 14:12:03;;;;;;;5.68;1.50;;;;;;;;;;4993211;28;20506;-63
2022/06/19 14:14:17;;;;;;;8.60;1.63;;;;;;;;;;4993671;28;20267;-63
2022/06/19 14:16:45;;;;;;;7.43;1.65;;;;;;;;;;4992984;28;20205;-63
2022/06/19 14:19:15;;;;;;;6.22;1.40;;;;;;;;;;4991095;28;20225;-63
2022/06/19 14:21:45;;;;;;;8.30;1.60;;;;;;;;;;4992496;28;20209;-63
2022/06/19 14:24:23;;;;;;;7.60;1.60;;;;;;;;;;4991771;28;20216;-63
2022/06/19 14:26:49;;;;;;;7.10;1.50;;;;;;;;;;4993159;28;20208;-63
2022/06/19 14:29:33;;;;;;;8.45;1.88;;;;;;;;;;4993300;28;20583;-64
2022/06/19 14:31:59;;;;;;;9.88;1.70;;;;;;;;;;5000835;28;20238;-64
2022/06/19 14:34:43;;;;;;;6.20;1.30;;;;;;;;;;5010886;28;20213;-64
2022/06/19 14:37:29;;;;;;;7.55;1.60;;;;;;;;;;4992951;28;20770;-64
2022/06/19 14:39:55;;;;;;;9.07;1.40;;;;;;;;;;4992263;28;20271;-64
2022/06/19 14:42:21;;;;;;;9.13;1.50;;;;;;;;;;5006727;28;20217;-63
2022/06/19 14:44:47;;;;;;;6.95;1.38;;;;;;;;;;5005882;28;20274;-63
2022/06/19 14:47:17;;;;;;;8.13;1.77;;;;;;;;;;5010304;28;20291;-64
2022/06/19 14:49:53;;;;;;;8.07;1.75;;;;;;;;;;5012934;28;20220;-64
2022/06/19 14:52:26;;;;;;;6.57;1.45;;;;;;;;;;5010878;28;20211;-64
2022/06/19 14:55:12;;;;;;;8.10;1.92;;;;;;;;;;5011865;28;20212;-64